Witch Wells, Arizona
Current Conditions -  °F | °C
As of 6:54 PM on Sunday 25 Jan 2015 (Local Time) from KSJN Reporting Station
Clear Clear  
Wind Chill: 37°   Ceiling: Unl
Heat Index: 40°   Visibility: 10mi
Dew Point: 21°   Wind: 5mph
Humidity: 47%   Direction: 240°WSW
Pressure: 30.28"   Gusts: NA
Location:  34.4981°N, 109.241°W
Report Text: KSJN 260154Z AUTO 24004KT 10SM CLR 04/M06 A3028 RMK AO2 SLP265 T00441061
Loading
Personal Weather Stations






























Interactive Weather Map New forecast layout! Learn more

10-Day Weather Forecast

Advertisements
Track Severe Weather on mobile